createdAt,value
2023-07-03T00:02:01.511Z,56.93
2023-07-03T00:04:37.009Z,57.08
2023-07-03T00:07:04.692Z,56.93
2023-07-03T00:09:31.469Z,57.10
2023-07-03T00:12:00.282Z,56.90
2023-07-03T00:14:30.025Z,57.07
2023-07-03T00:16:56.834Z,57.04
2023-07-03T00:19:27.704Z,57.07
2023-07-03T00:21:54.465Z,57.08
2023-07-03T00:24:21.129Z,57.11
2023-07-03T00:26:50.176Z,56.96
2023-07-03T00:29:16.821Z,57.12
2023-07-03T00:31:45.823Z,57.05
2023-07-03T00:34:12.534Z,57.16
2023-07-03T00:36:41.401Z,57.09
2023-07-03T00:39:10.292Z,57.30
2023-07-03T00:41:39.361Z,57.24
2023-07-03T00:44:09.710Z,57.03
2023-07-03T00:46:36.635Z,57.22
2023-07-03T00:49:04.791Z,57.43
2023-07-03T00:51:34.030Z,57.33
2023-07-03T00:54:00.680Z,57.14
2023-07-03T00:56:29.528Z,56.96
2023-07-03T00:58:58.482Z,57.27
2023-07-03T01:01:45.008Z,57.15
2023-07-03T01:04:17.279Z,57.42
2023-07-03T01:06:47.642Z,57.03
2023-07-03T01:09:17.507Z,57.23
2023-07-03T01:11:44.575Z,57.31
2023-07-03T01:14:11.451Z,57.23
2023-07-03T01:16:39.082Z,57.05
2023-07-03T01:19:09.151Z,57.43
2023-07-03T01:22:05.194Z,56.98
2023-07-03T01:24:33.130Z,57.35
2023-07-03T01:27:03.633Z,57.03
2023-07-03T01:29:30.452Z,57.38
2023-07-03T01:31:59.830Z,57.20
2023-07-03T01:34:27.326Z,57.53
2023-07-03T01:36:54.677Z,57.19
2023-07-03T01:39:23.566Z,57.25
2023-07-03T01:41:50.308Z,57.35
2023-07-03T01:44:16.960Z,57.58
2023-07-03T01:46:43.707Z,57.44
2023-07-03T01:49:16.322Z,57.23
2023-07-03T01:51:55.101Z,57.27
2023-07-03T01:54:27.169Z,57.24
2023-07-03T01:56:53.927Z,57.42
2023-07-03T01:59:22.462Z,57.48
2023-07-03T02:02:18.359Z,57.18
2023-07-03T02:04:59.223Z,57.48
2023-07-03T02:07:27.187Z,57.53
2023-07-03T02:09:53.958Z,57.35
2023-07-03T02:12:20.686Z,57.32
2023-07-03T02:14:50.251Z,57.33
2023-07-03T02:17:17.025Z,57.00
2023-07-03T02:19:48.974Z,57.16
2023-07-03T02:22:15.709Z,57.20
2023-07-03T02:24:42.398Z,57.15
2023-07-03T02:27:09.133Z,57.46
2023-07-03T02:29:35.806Z,57.10
2023-07-03T02:32:04.708Z,57.40
2023-07-03T02:34:33.330Z,57.14
2023-07-03T02:37:02.195Z,57.29
2023-07-03T02:39:30.980Z,57.61
2023-07-03T02:41:57.734Z,57.55
2023-07-03T02:44:26.584Z,57.29
2023-07-03T02:46:53.319Z,57.58
2023-07-03T02:49:20.071Z,57.38
2023-07-03T02:51:46.873Z,57.54
2023-07-03T02:54:13.572Z,57.44
2023-07-03T02:56:42.458Z,57.71
2023-07-03T02:59:09.125Z,57.72
2023-07-03T03:01:37.315Z,57.64
2023-07-03T03:04:04.362Z,57.74
2023-07-03T03:06:33.236Z,57.55
2023-07-03T03:09:00.209Z,57.49
2023-07-03T03:11:31.573Z,57.66
2023-07-03T03:14:17.210Z,57.30
2023-07-03T03:16:43.869Z,57.43
2023-07-03T03:19:12.872Z,57.52
2023-07-03T03:21:39.629Z,57.48
2023-07-03T03:24:09.291Z,57.60
2023-07-03T03:26:36.718Z,57.79
2023-07-03T03:29:05.736Z,57.73
2023-07-03T03:31:32.394Z,57.85
2023-07-03T03:33:59.402Z,57.58
2023-07-03T03:36:27.750Z,57.55
2023-07-03T03:38:54.776Z,57.63
2023-07-03T03:41:23.718Z,57.80
2023-07-03T03:43:50.347Z,57.77
2023-07-03T03:46:17.101Z,57.80
2023-07-03T03:48:43.843Z,57.99
2023-07-03T03:51:12.962Z,58.05
2023-07-03T03:53:40.342Z,57.83
2023-07-03T03:56:09.264Z,57.79
2023-07-03T03:58:36.103Z,57.85
2023-07-03T04:01:03.366Z,58.01
2023-07-03T04:03:32.218Z,57.85
2023-07-03T04:06:01.198Z,57.92
2023-07-03T04:08:30.198Z,57.89
2023-07-03T04:10:57.012Z,57.97
2023-07-03T04:13:26.576Z,57.96
2023-07-03T04:15:56.475Z,58.18
2023-07-03T04:18:23.936Z,57.89
2023-07-03T04:20:50.849Z,57.95
2023-07-03T04:23:17.725Z,58.18
2023-07-03T04:25:44.518Z,57.92
2023-07-03T04:28:12.005Z,58.38
2023-07-03T04:30:38.939Z,58.17
2023-07-03T04:33:05.886Z,58.25
2023-07-03T04:35:32.760Z,58.02
2023-07-03T04:38:02.525Z,57.95
2023-07-03T04:40:31.008Z,58.06
2023-07-03T04:42:58.195Z,58.08
2023-07-03T04:45:29.248Z,58.29
2023-07-03T04:47:55.861Z,58.05
2023-07-03T04:50:26.419Z,58.37
2023-07-03T04:52:53.476Z,58.43
2023-07-03T04:55:20.310Z,58.08
2023-07-03T04:57:47.119Z,58.08
2023-07-03T05:00:16.438Z,58.49
2023-07-03T05:02:49.882Z,58.19
2023-07-03T05:05:17.637Z,57.83
2023-07-03T05:07:44.936Z,57.91
2023-07-03T05:10:12.957Z,57.71
2023-07-03T05:12:39.733Z,58.15
2023-07-03T05:15:09.364Z,57.80
2023-07-03T05:17:39.596Z,57.75
2023-07-03T05:20:14.338Z,58.15
2023-07-03T05:22:44.726Z,57.72
2023-07-03T05:25:13.031Z,57.89
2023-07-03T05:27:42.203Z,57.91
2023-07-03T05:30:09.453Z,57.51
2023-07-03T05:32:36.475Z,57.46
2023-07-03T05:35:04.691Z,57.76
2023-07-03T05:37:33.806Z,57.89
2023-07-03T05:40:02.882Z,57.73
2023-07-03T05:42:29.605Z,57.86
2023-07-03T05:44:58.586Z,57.66
2023-07-03T05:47:25.280Z,57.48
2023-07-03T05:49:53.565Z,57.72
2023-07-03T05:52:20.408Z,57.49
2023-07-03T05:54:47.201Z,57.62
2023-07-03T05:57:13.979Z,57.89
2023-07-03T05:59:45.833Z,57.95
2023-07-03T06:02:13.854Z,58.09
2023-07-03T06:04:40.708Z,58.00
2023-07-03T06:07:07.759Z,58.33
2023-07-03T06:09:36.389Z,58.29
2023-07-03T06:12:04.103Z,58.38
2023-07-03T06:14:31.228Z,58.28
2023-07-03T06:16:59.999Z,57.72
2023-07-03T06:19:27.284Z,57.77
2023-07-03T06:21:54.506Z,57.78
2023-07-03T06:24:29.423Z,57.87
2023-07-03T06:26:58.780Z,58.07
2023-07-03T06:29:27.636Z,57.82
2023-07-03T06:31:56.857Z,57.84
2023-07-03T06:34:25.884Z,58.04
2023-07-03T06:36:53.129Z,57.63
2023-07-03T06:39:19.878Z,57.79
2023-07-03T06:41:46.586Z,57.91
2023-07-03T06:44:14.958Z,57.85
2023-07-03T06:46:44.660Z,57.87
2023-07-03T06:49:11.453Z,57.93
2023-07-03T06:51:40.291Z,58.03
2023-07-03T06:54:09.298Z,57.98
2023-07-03T06:56:35.946Z,58.28
2023-07-03T06:59:02.960Z,57.97
2023-07-03T07:01:30.194Z,57.67
2023-07-03T07:03:57.223Z,57.79
2023-07-03T07:06:25.764Z,57.63
2023-07-03T07:08:52.708Z,57.71
2023-07-03T07:11:26.062Z,57.88
2023-07-03T07:13:53.339Z,57.96
2023-07-03T07:16:38.311Z,57.95
2023-07-03T07:19:06.480Z,58.54
2023-07-03T07:21:36.499Z,59.02
2023-07-03T07:24:06.655Z,58.51
2023-07-03T07:26:35.152Z,59.27
2023-07-03T07:29:02.287Z,58.90
2023-07-03T07:31:32.320Z,59.37
2023-07-03T07:34:02.174Z,59.09
2023-07-03T07:36:28.851Z,59.32
2023-07-03T07:38:56.902Z,59.09
2023-07-03T07:41:29.121Z,59.60
2023-07-03T07:43:56.268Z,59.69
2023-07-03T07:46:26.703Z,59.67
2023-07-03T07:48:53.468Z,59.21
2023-07-03T07:51:20.184Z,59.50
2023-07-03T07:53:46.899Z,59.17
2023-07-03T07:56:14.834Z,59.22
2023-07-03T07:58:43.706Z,59.30
2023-07-03T08:01:12.507Z,59.36
2023-07-03T08:03:40.863Z,59.21
2023-07-03T08:06:07.612Z,59.31
2023-07-03T08:08:37.878Z,59.37
2023-07-03T08:11:05.574Z,59.14
2023-07-03T08:13:33.121Z,59.12
2023-07-03T08:15:59.968Z,59.24
2023-07-03T08:18:29.856Z,58.97
2023-07-03T08:20:56.864Z,58.91
2023-07-03T08:23:23.867Z,58.91
2023-07-03T08:25:52.411Z,58.88
2023-07-03T08:28:21.948Z,59.18
2023-07-03T08:30:50.874Z,59.04
2023-07-03T08:33:17.689Z,59.11
2023-07-03T08:38:16.625Z,58.78
2023-07-03T08:40:45.538Z,59.14
2023-07-03T08:43:18.112Z,59.23
2023-07-03T08:45:50.531Z,59.09
2023-07-03T08:48:22.422Z,58.61
2023-07-03T08:50:51.937Z,59.01
2023-07-03T08:53:26.299Z,58.87
2023-07-03T08:56:10.154Z,58.39
2023-07-03T08:58:39.349Z,58.78
2023-07-03T09:01:46.850Z,59.09
2023-07-03T09:04:44.432Z,58.57
2023-07-03T09:07:14.425Z,58.39
2023-07-03T09:09:49.267Z,58.41
2023-07-03T09:12:24.474Z,58.53
2023-07-03T09:14:59.284Z,58.39
2023-07-03T09:17:26.430Z,58.31
2023-07-03T09:19:53.785Z,58.31
2023-07-03T09:22:35.028Z,58.32
2023-07-03T09:25:02.482Z,58.48
2023-07-03T09:27:30.024Z,58.22
2023-07-03T09:30:03.147Z,58.37
2023-07-03T09:32:31.072Z,58.18
2023-07-03T09:35:03.642Z,58.26
2023-07-03T09:37:33.084Z,58.20
2023-07-03T09:40:00.014Z,58.02
2023-07-03T09:42:27.124Z,58.33
2023-07-03T09:44:55.906Z,58.19
2023-07-03T09:47:27.217Z,58.04
2023-07-03T09:49:56.993Z,57.97
2023-07-03T09:52:24.775Z,58.27
2023-07-03T09:54:51.536Z,57.57
2023-07-03T09:57:21.232Z,57.85
2023-07-03T09:59:49.104Z,58.11
2023-07-03T10:07:20.710Z,58.18
2023-07-03T10:12:29.770Z,57.96
2023-07-03T10:15:09.594Z,58.18
2023-07-03T10:17:43.435Z,57.97
2023-07-03T10:20:15.124Z,57.73
2023-07-03T10:22:44.758Z,57.59
2023-07-03T10:25:16.791Z,57.73
2023-07-03T10:27:46.305Z,57.66
2023-07-03T10:30:16.450Z,57.61
2023-07-03T10:32:44.890Z,57.72
2023-07-03T10:35:14.989Z,58.03
2023-07-03T10:38:11.501Z,57.74
2023-07-03T10:40:49.397Z,57.35
2023-07-03T10:43:16.572Z,57.45
2023-07-03T10:45:43.336Z,57.31
2023-07-03T10:48:16.873Z,57.80
2023-07-03T10:51:05.502Z,57.80
2023-07-03T10:53:39.113Z,57.46
2023-07-03T10:56:14.792Z,57.28
2023-07-03T10:59:00.422Z,57.32
2023-07-03T11:01:43.595Z,57.43
2023-07-03T11:04:25.484Z,57.75
2023-07-03T11:07:08.845Z,57.50
2023-07-03T11:09:53.000Z,57.33
2023-07-03T11:12:30.814Z,57.35
2023-07-03T11:15:28.574Z,57.28
2023-07-03T11:23:40.979Z,57.18
2023-07-03T11:28:51.486Z,57.46
2023-07-03T11:31:20.901Z,57.62
2023-07-03T11:37:02.041Z,57.18
2023-07-03T11:44:32.577Z,57.20
2023-07-03T11:47:07.800Z,57.34
2023-07-03T11:49:36.872Z,57.15
2023-07-03T11:52:05.620Z,57.22
2023-07-03T11:54:36.487Z,57.58
2023-07-03T11:57:36.408Z,57.42
2023-07-03T12:00:30.355Z,57.38
2023-07-03T12:03:05.667Z,57.35
2023-07-03T12:05:53.679Z,57.27
2023-07-03T12:08:20.509Z,57.42
2023-07-03T12:10:59.091Z,57.34
2023-07-03T12:13:41.085Z,57.28
2023-07-03T12:16:14.680Z,57.06
2023-07-03T12:18:43.556Z,57.50
2023-07-03T12:21:10.316Z,57.04
2023-07-03T12:23:42.742Z,57.16
2023-07-03T12:26:11.587Z,57.35
2023-07-03T12:28:40.771Z,57.40
2023-07-03T12:31:15.889Z,56.98
2023-07-03T12:33:58.790Z,57.10
2023-07-03T12:36:35.052Z,57.27
2023-07-03T12:39:17.362Z,57.05
2023-07-03T12:41:44.369Z,57.10
2023-07-03T12:44:12.115Z,57.09
2023-07-03T12:46:46.542Z,57.05
2023-07-03T12:49:21.820Z,57.14
2023-07-03T12:51:53.248Z,57.17
2023-07-03T12:54:21.765Z,57.07
2023-07-03T12:56:49.722Z,56.83
2023-07-03T12:59:19.778Z,56.81
2023-07-03T13:01:51.233Z,57.05
2023-07-03T13:04:33.144Z,57.03
2023-07-03T13:06:59.950Z,57.02
2023-07-03T13:09:26.693Z,57.06
2023-07-03T13:11:55.705Z,57.01
2023-07-03T13:14:27.409Z,56.79
2023-07-03T13:16:55.679Z,57.08
2023-07-03T13:19:32.621Z,56.80
2023-07-03T13:21:59.970Z,56.90
2023-07-03T13:24:27.773Z,56.66
2023-07-03T13:26:57.017Z,56.77
2023-07-03T13:29:37.149Z,56.75
2023-07-03T13:32:19.902Z,56.86
2023-07-03T13:35:17.275Z,56.61
2023-07-03T13:37:45.204Z,56.66
2023-07-03T13:40:12.321Z,56.74
2023-07-03T13:42:39.041Z,56.77
2023-07-03T13:45:06.170Z,56.48
2023-07-03T13:47:32.921Z,56.85
2023-07-03T13:49:59.615Z,56.90
2023-07-03T13:52:26.385Z,56.67
2023-07-03T13:54:53.171Z,56.58
2023-07-03T13:57:19.877Z,56.66
2023-07-03T13:59:46.555Z,56.87
2023-07-03T14:02:15.984Z,56.81
2023-07-03T14:04:45.403Z,56.51
2023-07-03T14:07:12.277Z,56.41
2023-07-03T14:09:41.202Z,56.32
2023-07-03T14:12:10.183Z,56.57
2023-07-03T14:14:39.468Z,56.64
2023-07-03T14:17:06.232Z,56.55
2023-07-03T14:19:35.193Z,56.55
2023-07-03T14:22:01.996Z,56.35
2023-07-03T14:24:31.708Z,56.29
2023-07-03T14:26:58.433Z,56.57
2023-07-03T14:29:27.409Z,56.29
2023-07-03T14:31:54.026Z,56.28
2023-07-03T14:34:20.659Z,56.41
2023-07-03T14:36:50.150Z,56.49
2023-07-03T14:39:20.023Z,56.21
2023-07-03T14:41:46.757Z,56.16
2023-07-03T14:44:13.547Z,56.28
2023-07-03T14:46:40.384Z,56.52
2023-07-03T14:49:07.218Z,56.14
2023-07-03T14:51:33.903Z,56.23
2023-07-03T14:54:03.203Z,56.03
2023-07-03T14:56:32.554Z,56.33
2023-07-03T14:58:59.236Z,56.13
2023-07-03T15:01:28.894Z,56.11
2023-07-03T15:03:58.136Z,56.38
2023-07-03T15:06:24.904Z,56.02
2023-07-03T15:08:51.520Z,56.03
2023-07-03T15:11:20.990Z,55.84
2023-07-03T15:13:47.841Z,56.26
2023-07-03T15:16:14.711Z,56.11
2023-07-03T15:18:46.626Z,55.92
2023-07-03T15:21:15.439Z,55.86
2023-07-03T15:23:44.379Z,55.97
2023-07-03T15:26:11.384Z,55.86
2023-07-03T15:28:40.272Z,55.87
2023-07-03T15:31:07.519Z,56.22
2023-07-03T15:33:38.848Z,56.24
2023-07-03T15:36:05.570Z,55.76
2023-07-03T15:38:32.377Z,55.86
2023-07-03T15:40:59.366Z,56.13
2023-07-03T15:43:26.388Z,56.20
2023-07-03T15:46:02.260Z,56.09
2023-07-03T15:48:29.064Z,55.86
2023-07-03T15:50:57.476Z,55.77
2023-07-03T15:53:24.736Z,56.01
2023-07-03T15:56:04.079Z,56.13
2023-07-03T15:58:32.655Z,56.01
2023-07-03T16:01:00.799Z,55.85
2023-07-03T16:03:28.282Z,55.99
2023-07-03T16:06:01.175Z,55.72
2023-07-03T16:08:33.674Z,55.91
2023-07-03T16:11:02.321Z,55.59
2023-07-03T16:13:29.107Z,55.57
2023-07-03T16:15:55.855Z,55.57
2023-07-03T16:18:24.714Z,55.76
2023-07-03T16:21:00.213Z,55.96
2023-07-03T16:23:28.019Z,55.59
2023-07-03T16:26:05.049Z,55.80
2023-07-03T16:28:34.806Z,55.55
2023-07-03T16:31:18.933Z,55.58
2023-07-03T16:33:49.495Z,55.62
2023-07-03T16:36:22.939Z,55.73
2023-07-03T16:38:57.409Z,55.44
2023-07-03T16:41:24.962Z,55.59
2023-07-03T16:43:56.871Z,55.53
2023-07-03T16:46:27.406Z,55.59
2023-07-03T16:48:55.090Z,55.64
2023-07-03T16:51:24.478Z,55.49
2023-07-03T16:53:51.218Z,55.49
2023-07-03T16:56:22.135Z,55.65
2023-07-03T16:58:51.145Z,55.46
2023-07-03T17:01:23.124Z,55.39
2023-07-03T17:03:53.084Z,55.63
2023-07-03T17:06:21.496Z,55.66
2023-07-03T17:08:50.533Z,55.77
2023-07-03T17:11:17.249Z,55.49
2023-07-03T17:13:44.865Z,55.55
2023-07-03T17:16:16.408Z,55.70
2023-07-03T17:18:45.709Z,55.71
2023-07-03T17:21:14.708Z,55.90
2023-07-03T17:23:42.189Z,55.85
2023-07-03T17:26:11.864Z,55.70
2023-07-03T17:28:38.708Z,55.81
2023-07-03T17:31:05.950Z,55.75
2023-07-03T17:33:32.910Z,55.93
2023-07-03T17:36:02.389Z,55.71
2023-07-03T17:38:29.776Z,56.01
2023-07-03T17:40:56.510Z,55.82
2023-07-03T17:43:26.180Z,56.26
2023-07-03T17:45:55.891Z,56.20
2023-07-03T17:48:22.984Z,55.65
2023-07-03T17:50:51.047Z,55.83
2023-07-03T17:53:21.909Z,55.96
2023-07-03T17:55:48.904Z,55.85
2023-07-03T17:58:17.994Z,55.93
2023-07-03T18:00:45.166Z,56.12
2023-07-03T18:03:15.363Z,55.77
2023-07-03T18:05:42.137Z,56.20
2023-07-03T18:08:08.975Z,55.96
2023-07-03T18:10:35.885Z,55.71
2023-07-03T18:13:02.627Z,55.90
2023-07-03T18:15:47.415Z,56.08
2023-07-03T18:18:18.125Z,56.72
2023-07-03T18:20:45.796Z,56.55
2023-07-03T18:23:12.685Z,56.26
2023-07-03T18:25:40.070Z,56.43
2023-07-03T18:28:06.842Z,57.02
2023-07-03T18:30:35.868Z,56.45
2023-07-03T18:33:02.811Z,56.69
2023-07-03T18:35:29.563Z,57.02
2023-07-03T18:37:56.306Z,56.27
2023-07-03T18:40:23.169Z,56.32
2023-07-03T18:42:52.027Z,56.51
2023-07-03T18:45:18.780Z,57.01
2023-07-03T18:47:45.548Z,57.03
2023-07-03T18:50:14.456Z,57.29
2023-07-03T18:52:43.301Z,58.58
2023-07-03T18:55:10.231Z,60.58
2023-07-03T18:57:39.229Z,63.62
2023-07-03T19:00:08.072Z,66.43
2023-07-03T19:02:37.142Z,65.69
2023-07-03T19:05:06.445Z,66.06
2023-07-03T19:07:33.616Z,66.82
2023-07-03T19:10:16.753Z,66.86
2023-07-03T19:12:44.154Z,67.51
2023-07-03T19:15:11.052Z,67.24
2023-07-03T19:17:37.992Z,67.03
2023-07-03T19:20:04.996Z,67.50
2023-07-03T19:22:31.732Z,68.01
2023-07-03T19:25:00.515Z,68.17
2023-07-03T19:27:27.172Z,68.51
2023-07-03T19:29:53.886Z,68.54
2023-07-03T19:32:23.130Z,68.94
2023-07-03T19:34:54.613Z,69.26
2023-07-03T19:37:21.356Z,69.15
2023-07-03T19:39:48.077Z,69.25
2023-07-03T19:42:16.906Z,69.67
2023-07-03T19:44:43.635Z,69.53
2023-07-03T19:47:10.432Z,69.78
2023-07-03T19:49:37.177Z,69.64
2023-07-03T19:52:04.136Z,69.69
2023-07-03T19:54:31.023Z,69.85
2023-07-03T19:57:00.045Z,69.81
2023-07-03T19:59:26.812Z,69.69
2023-07-03T20:01:55.646Z,70.00
2023-07-03T20:04:25.447Z,70.28
2023-07-03T20:06:52.760Z,70.15
2023-07-03T20:09:21.718Z,70.04
2023-07-03T20:11:51.284Z,70.01
2023-07-03T20:14:18.818Z,70.11
2023-07-03T20:16:47.934Z,69.96
2023-07-03T20:19:14.709Z,70.34
2023-07-03T20:21:41.402Z,70.12
2023-07-03T20:24:08.216Z,69.28
2023-07-03T20:26:34.925Z,68.86
2023-07-03T20:29:03.962Z,68.91
2023-07-03T20:31:30.908Z,70.15
2023-07-03T20:34:00.357Z,70.16
2023-07-03T20:36:29.274Z,70.27
2023-07-03T20:38:57.861Z,70.04
2023-07-03T20:41:24.758Z,70.40
2023-07-03T20:43:53.594Z,70.17
2023-07-03T20:46:22.419Z,69.89
2023-07-03T20:48:55.519Z,69.70
2023-07-03T20:51:27.860Z,69.84
2023-07-03T20:53:57.507Z,69.76
2023-07-03T20:56:28.017Z,69.53
2023-07-03T20:58:58.753Z,69.69
2023-07-03T21:01:30.579Z,69.37
2023-07-03T21:04:00.764Z,69.51
2023-07-03T21:06:29.037Z,69.25
2023-07-03T21:08:56.418Z,69.83
2023-07-03T21:11:24.484Z,69.87
2023-07-03T21:13:52.150Z,70.35
2023-07-03T21:16:20.330Z,69.47
2023-07-03T21:18:47.059Z,69.86
2023-07-03T21:21:18.315Z,69.38
2023-07-03T21:23:45.134Z,70.19
2023-07-03T21:26:12.692Z,70.10
2023-07-03T21:28:39.359Z,70.75
2023-07-03T21:31:06.364Z,70.90
2023-07-03T21:33:33.768Z,70.69
2023-07-03T21:36:13.486Z,70.62
2023-07-03T21:38:43.377Z,70.86
2023-07-03T21:41:16.241Z,70.81
2023-07-03T21:43:48.001Z,71.76
2023-07-03T21:46:16.978Z,71.39
2023-07-03T21:48:43.992Z,71.63
2023-07-03T21:51:16.262Z,70.83
2023-07-03T21:53:43.284Z,70.58
2023-07-03T21:56:12.421Z,71.01
2023-07-03T21:58:39.566Z,71.09
2023-07-03T22:01:15.784Z,71.17
2023-07-03T22:03:44.957Z,70.96
2023-07-03T22:06:13.814Z,71.09
2023-07-03T22:08:40.517Z,71.66
2023-07-03T22:11:09.315Z,71.89
2023-07-03T22:13:38.269Z,71.59
2023-07-03T22:16:05.357Z,71.83
2023-07-03T22:18:32.081Z,71.62
2023-07-03T22:20:58.809Z,72.05
2023-07-03T22:23:31.613Z,71.58
2023-07-03T22:26:01.665Z,71.99
2023-07-03T22:28:28.883Z,71.67
2023-07-03T22:30:55.661Z,71.69
2023-07-03T22:33:22.847Z,71.64
2023-07-03T22:35:49.844Z,71.75
2023-07-03T22:38:16.677Z,71.52
2023-07-03T22:40:46.572Z,71.89
2023-07-03T22:43:13.228Z,71.57
2023-07-03T22:45:40.016Z,71.43
2023-07-03T22:48:06.790Z,71.45
2023-07-03T22:50:34.071Z,71.30
2023-07-03T22:53:02.920Z,71.91
2023-07-03T22:55:29.740Z,71.64
2023-07-03T22:57:58.866Z,71.33
2023-07-03T23:00:28.591Z,71.37
2023-07-03T23:02:57.531Z,71.30
2023-07-03T23:05:29.114Z,71.32
2023-07-03T23:07:57.959Z,70.92
2023-07-03T23:10:24.725Z,71.34
2023-07-03T23:12:51.509Z,71.68
2023-07-03T23:15:20.406Z,71.37
2023-07-03T23:17:47.390Z,70.78
2023-07-03T23:20:15.751Z,71.17
2023-07-03T23:22:42.923Z,71.34
2023-07-03T23:25:14.836Z,71.02
2023-07-03T23:27:46.253Z,70.91
2023-07-03T23:30:13.205Z,71.35
2023-07-03T23:32:42.115Z,71.33
2023-07-03T23:35:12.168Z,71.00
2023-07-03T23:37:44.766Z,71.00
2023-07-03T23:40:12.185Z,71.43
2023-07-03T23:42:39.981Z,71.07
2023-07-03T23:45:07.371Z,71.23
2023-07-03T23:47:34.256Z,71.47
2023-07-03T23:50:00.914Z,71.27
2023-07-03T23:52:27.528Z,71.51
2023-07-03T23:54:54.642Z,71.88
2023-07-03T23:57:23.125Z,72.00
2023-07-03T23:59:57.062Z,71.70
